createdAt,value
2022-10-13T00:01:14.481Z,13.80
2022-10-13T00:03:42.947Z,13.80
2022-10-13T00:06:11.036Z,13.70
2022-10-13T00:08:39.309Z,13.80
2022-10-13T00:11:15.847Z,13.70
2022-10-13T00:13:44.687Z,13.70
2022-10-13T00:16:14.329Z,13.70
2022-10-13T00:18:41.928Z,13.70
2022-10-13T00:21:14.392Z,13.70
2022-10-13T00:23:42.144Z,13.70
2022-10-13T00:26:12.998Z,13.70
2022-10-13T00:28:40.980Z,13.70
2022-10-13T00:31:22.289Z,13.70
2022-10-13T00:33:50.068Z,13.60
2022-10-13T00:36:17.652Z,13.60
2022-10-13T00:38:45.458Z,13.70
2022-10-13T00:41:12.937Z,13.60
2022-10-13T00:44:07.240Z,13.60
2022-10-13T00:46:37.527Z,13.60
2022-10-13T00:49:09.762Z,13.60
2022-10-13T00:51:41.964Z,13.60
2022-10-13T00:54:11.954Z,13.60
2022-10-13T00:56:40.720Z,13.60
2022-10-13T00:59:22.400Z,13.60
2022-10-13T01:01:51.313Z,13.60
2022-10-13T01:04:22.674Z,13.70
2022-10-13T01:06:50.363Z,13.70
2022-10-13T01:09:17.924Z,13.70
2022-10-13T01:12:02.852Z,13.70
2022-10-13T01:14:46.581Z,13.70
2022-10-13T01:17:32.591Z,13.70
2022-10-13T01:20:15.726Z,13.70
2022-10-13T01:23:04.029Z,13.70
2022-10-13T01:25:44.249Z,13.60
2022-10-13T01:28:24.651Z,13.60
2022-10-13T01:30:58.912Z,13.60
2022-10-13T01:34:04.570Z,13.60
2022-10-13T01:36:53.464Z,13.60
2022-10-13T01:39:51.294Z,13.60
2022-10-13T01:42:24.303Z,13.60
2022-10-13T01:44:58.566Z,13.60
2022-10-13T01:47:26.630Z,13.60
2022-10-13T01:49:55.747Z,13.60
2022-10-13T01:52:26.801Z,13.60
2022-10-13T01:54:54.380Z,13.60
2022-10-13T01:57:36.589Z,13.50
2022-10-13T02:00:18.580Z,13.50
2022-10-13T02:03:23.419Z,13.50
2022-10-13T02:06:16.258Z,13.50
2022-10-13T02:09:10.725Z,13.50
2022-10-13T02:11:44.981Z,13.60
2022-10-13T02:14:21.926Z,13.60
2022-10-13T02:16:50.735Z,13.50
2022-10-13T02:19:19.147Z,13.50
2022-10-13T02:21:47.365Z,13.50
2022-10-13T02:24:15.332Z,13.50
2022-10-13T02:26:43.064Z,13.50
2022-10-13T02:29:13.312Z,13.50
2022-10-13T02:31:41.654Z,13.50
2022-10-13T02:34:10.218Z,13.50
2022-10-13T02:36:38.466Z,13.50
2022-10-13T02:39:10.441Z,13.50
2022-10-13T02:41:38.158Z,13.50
2022-10-13T02:44:06.282Z,13.50
2022-10-13T02:46:33.718Z,13.50
2022-10-13T02:49:01.702Z,13.50
2022-10-13T02:51:29.201Z,13.50
2022-10-13T02:53:56.540Z,13.50
2022-10-13T02:56:23.961Z,13.50
2022-10-13T02:58:51.856Z,13.50
2022-10-13T03:01:19.303Z,13.50
2022-10-13T03:03:46.714Z,13.50
2022-10-13T03:06:14.099Z,13.50
2022-10-13T03:08:41.710Z,13.50
2022-10-13T03:11:09.092Z,13.50
2022-10-13T03:13:37.239Z,13.50
2022-10-13T03:16:04.928Z,13.50
2022-10-13T03:18:32.366Z,13.40
2022-10-13T03:21:01.765Z,13.40
2022-10-13T03:23:29.537Z,13.40
2022-10-13T03:25:56.969Z,13.40
2022-10-13T03:28:24.414Z,13.40
2022-10-13T03:31:00.815Z,13.40
2022-10-13T03:33:28.225Z,13.40
2022-10-13T03:35:58.899Z,13.40
2022-10-13T03:38:26.521Z,13.40
2022-10-13T03:40:53.982Z,13.40
2022-10-13T03:43:21.433Z,13.40
2022-10-13T03:45:59.836Z,13.40
2022-10-13T03:48:28.005Z,13.40
2022-10-13T03:50:55.850Z,13.40
2022-10-13T03:53:23.254Z,13.40
2022-10-13T03:55:55.903Z,13.40
2022-10-13T03:58:25.267Z,13.40
2022-10-13T04:00:52.704Z,13.40
2022-10-13T04:03:20.263Z,13.40
2022-10-13T04:05:47.879Z,13.40
2022-10-13T04:08:16.239Z,13.30
2022-10-13T04:10:44.139Z,13.30
2022-10-13T04:13:11.685Z,13.30
2022-10-13T04:15:40.441Z,13.30
2022-10-13T04:18:10.581Z,13.30
2022-10-13T04:20:39.024Z,13.40
2022-10-13T04:23:07.430Z,13.40
2022-10-13T04:25:36.461Z,13.30
2022-10-13T04:28:05.707Z,13.30
2022-10-13T04:30:35.017Z,13.30
2022-10-13T04:33:02.503Z,13.30
2022-10-13T04:35:30.050Z,13.30
2022-10-13T04:37:58.085Z,13.30
2022-10-13T04:40:26.319Z,13.30
2022-10-13T04:42:53.766Z,13.30
2022-10-13T04:45:21.283Z,13.30
2022-10-13T04:47:48.663Z,13.30
2022-10-13T04:50:16.330Z,13.30
2022-10-13T04:52:44.059Z,13.30
2022-10-13T04:55:11.524Z,13.30
2022-10-13T04:57:39.024Z,13.30
2022-10-13T05:00:07.353Z,13.30
2022-10-13T05:02:38.325Z,13.30
2022-10-13T05:05:05.876Z,13.30
2022-10-13T05:07:33.300Z,13.30
2022-10-13T05:10:00.685Z,13.30
2022-10-13T05:12:28.121Z,13.30
2022-10-13T05:14:55.667Z,13.30
2022-10-13T05:17:23.059Z,13.30
2022-10-13T05:19:50.540Z,13.30
2022-10-13T05:22:18.464Z,13.30
2022-10-13T05:24:46.026Z,13.30
2022-10-13T05:27:13.941Z,13.20
2022-10-13T05:29:41.694Z,13.20
2022-10-13T05:32:09.103Z,13.30
2022-10-13T05:34:36.604Z,13.20
2022-10-13T05:37:04.622Z,13.20
2022-10-13T05:39:32.195Z,13.20
2022-10-13T05:41:59.598Z,13.20
2022-10-13T05:44:27.229Z,13.20
2022-10-13T05:46:54.608Z,13.20
2022-10-13T05:49:22.044Z,13.20
2022-10-13T05:51:53.000Z,13.30
2022-10-13T05:54:24.344Z,13.30
2022-10-13T05:56:54.735Z,13.30
2022-10-13T05:59:27.122Z,13.20
2022-10-13T06:01:55.415Z,13.20
2022-10-13T06:04:30.214Z,13.20
2022-10-13T06:06:57.804Z,13.20
2022-10-13T06:09:25.435Z,13.20
2022-10-13T06:11:52.810Z,13.20
2022-10-13T06:14:20.204Z,13.20
2022-10-13T06:16:47.670Z,13.20
2022-10-13T06:19:15.138Z,13.20
2022-10-13T06:21:42.526Z,13.20
2022-10-13T06:24:10.040Z,13.20
2022-10-13T06:26:37.467Z,13.20
2022-10-13T06:29:05.048Z,13.20
2022-10-13T06:31:32.577Z,13.20
2022-10-13T06:34:00.307Z,13.20
2022-10-13T06:36:27.854Z,13.20
2022-10-13T06:38:55.212Z,13.20
2022-10-13T06:41:22.688Z,13.20
2022-10-13T06:43:50.113Z,13.20
2022-10-13T06:46:17.612Z,13.20
2022-10-13T06:48:59.486Z,13.10
2022-10-13T06:51:27.003Z,13.10
2022-10-13T06:53:56.732Z,13.10
2022-10-13T06:56:24.380Z,13.10
2022-10-13T06:58:51.785Z,13.10
2022-10-13T07:01:19.305Z,13.10
2022-10-13T07:03:50.371Z,13.10
2022-10-13T07:06:18.609Z,13.10
2022-10-13T07:08:46.238Z,13.10
2022-10-13T07:11:16.152Z,13.10
2022-10-13T07:13:46.664Z,13.10
2022-10-13T07:16:15.401Z,13.20
2022-10-13T07:18:42.829Z,13.20
2022-10-13T07:21:10.501Z,13.20
2022-10-13T07:23:37.900Z,13.20
2022-10-13T07:26:10.722Z,13.30
2022-10-13T07:28:38.992Z,13.30
2022-10-13T07:31:13.589Z,13.30
2022-10-13T07:33:42.626Z,13.30
2022-10-13T07:36:11.330Z,13.30
2022-10-13T07:38:39.239Z,13.40
2022-10-13T07:41:08.870Z,13.40
2022-10-13T07:43:36.326Z,13.40
2022-10-13T07:46:07.377Z,13.40
2022-10-13T07:48:35.750Z,13.50
2022-10-13T07:51:12.486Z,13.50
2022-10-13T07:53:41.525Z,13.50
2022-10-13T07:56:12.026Z,13.50
2022-10-13T07:58:41.898Z,13.50
2022-10-13T08:01:09.848Z,13.80
2022-10-13T08:06:10.923Z,13.80
2022-10-13T08:08:40.163Z,13.80
2022-10-13T08:11:14.666Z,13.80
2022-10-13T08:13:50.592Z,13.80
2022-10-13T08:16:18.573Z,13.70
2022-10-13T08:18:46.870Z,13.70
2022-10-13T08:21:45.825Z,13.70
2022-10-13T08:24:06.487Z,13.70
2022-10-13T08:26:34.069Z,13.70
2022-10-13T08:34:17.222Z,13.70
2022-10-13T08:36:44.680Z,13.70
2022-10-13T08:39:12.838Z,13.80
2022-10-13T08:41:44.262Z,13.70
2022-10-13T08:47:27.695Z,13.80
2022-10-13T08:50:00.349Z,13.80
2022-10-13T08:52:41.954Z,13.80
2022-10-13T08:55:15.810Z,13.70
2022-10-13T08:57:44.619Z,13.70
2022-10-13T09:00:13.602Z,13.90
2022-10-13T09:02:44.344Z,13.90
2022-10-13T09:05:25.126Z,13.90
2022-10-13T09:10:25.766Z,13.80
2022-10-13T09:12:53.370Z,13.80
2022-10-13T09:15:21.278Z,13.80
2022-10-13T09:18:09.169Z,13.70
2022-10-13T09:20:36.640Z,13.70
2022-10-13T09:23:20.360Z,13.70
2022-10-13T09:25:52.669Z,13.70
2022-10-13T09:28:24.646Z,13.70
2022-10-13T09:31:09.153Z,13.70
2022-10-13T09:33:39.261Z,13.60
2022-10-13T09:36:13.121Z,13.60
2022-10-13T09:38:43.162Z,13.60
2022-10-13T09:41:10.519Z,13.60
2022-10-13T09:43:47.248Z,13.60
2022-10-13T09:46:17.704Z,13.70
2022-10-13T09:48:50.603Z,13.70
2022-10-13T09:51:42.812Z,13.70
2022-10-13T09:54:38.530Z,13.70
2022-10-13T09:57:47.074Z,13.70
2022-10-13T10:00:24.389Z,13.70
2022-10-13T10:03:02.067Z,13.70
2022-10-13T10:05:55.699Z,13.70
2022-10-13T10:09:03.237Z,13.60
2022-10-13T10:11:40.497Z,13.60
2022-10-13T10:14:25.376Z,13.60
2022-10-13T10:17:04.833Z,13.60
2022-10-13T10:19:35.129Z,13.60
2022-10-13T10:22:23.993Z,13.60
2022-10-13T10:25:06.593Z,13.60
2022-10-13T10:27:43.698Z,13.50
2022-10-13T10:30:19.788Z,13.60
2022-10-13T10:33:17.356Z,13.60
2022-10-13T10:35:53.941Z,13.70
2022-10-13T10:38:45.547Z,13.70
2022-10-13T10:41:43.147Z,13.70
2022-10-13T10:44:21.607Z,13.70
2022-10-13T10:46:50.888Z,13.80
2022-10-13T10:49:30.611Z,13.80
2022-10-13T10:52:06.023Z,13.80
2022-10-13T10:54:54.259Z,13.90
2022-10-13T10:57:33.614Z,13.90
2022-10-13T11:00:10.415Z,13.90
2022-10-13T11:02:54.468Z,13.90
2022-10-13T11:05:22.983Z,14.00
2022-10-13T11:07:50.392Z,14.00
2022-10-13T11:10:21.514Z,14.00
2022-10-13T11:12:52.104Z,14.00
2022-10-13T11:15:28.748Z,14.10
2022-10-13T11:17:56.267Z,14.10
2022-10-13T11:20:26.408Z,14.10
2022-10-13T11:22:59.513Z,14.10
2022-10-13T11:25:41.398Z,14.10
2022-10-13T11:28:23.903Z,14.20
2022-10-13T11:30:57.518Z,14.30
2022-10-13T11:33:37.162Z,14.30
2022-10-13T11:36:46.178Z,14.40
2022-10-13T11:39:28.442Z,14.40
2022-10-13T11:42:22.002Z,14.40
2022-10-13T11:44:49.850Z,14.60
2022-10-13T11:47:46.749Z,14.60
2022-10-13T11:50:42.081Z,14.70
2022-10-13T11:53:28.076Z,14.70
2022-10-13T11:55:57.941Z,14.80
2022-10-13T11:58:31.384Z,14.80
2022-10-13T12:01:07.751Z,14.70
2022-10-13T12:03:38.378Z,14.70
2022-10-13T12:06:17.642Z,14.80
2022-10-13T12:08:49.851Z,14.90
2022-10-13T12:11:30.569Z,15.30
2022-10-13T12:13:58.893Z,15.60
2022-10-13T12:16:29.577Z,16.00
2022-10-13T12:19:21.900Z,16.10
2022-10-13T12:21:57.302Z,16.40
2022-10-13T12:24:30.017Z,16.60
2022-10-13T12:26:58.690Z,17.10
2022-10-13T12:29:31.046Z,17.80
2022-10-13T12:32:01.016Z,18.10
2022-10-13T12:34:33.353Z,18.10
2022-10-13T12:37:04.754Z,18.60
2022-10-13T12:39:35.141Z,19.20
2022-10-13T12:42:03.966Z,19.20
2022-10-13T12:44:32.771Z,19.40
2022-10-13T12:47:03.716Z,20.00
2022-10-13T12:49:35.636Z,20.20
2022-10-13T12:52:09.644Z,20.50
2022-10-13T12:54:40.257Z,20.50
2022-10-13T12:57:19.743Z,20.70
2022-10-13T12:59:47.794Z,21.10
2022-10-13T13:02:28.435Z,20.80
2022-10-13T13:04:56.170Z,20.50
2022-10-13T13:07:34.227Z,20.20
2022-10-13T13:10:07.790Z,20.70
2022-10-13T13:12:37.530Z,20.60
2022-10-13T13:15:34.679Z,20.60
2022-10-13T13:18:26.607Z,20.60
2022-10-13T13:20:54.742Z,20.40
2022-10-13T13:23:23.572Z,20.00
2022-10-13T13:26:13.280Z,20.40
2022-10-13T13:28:48.195Z,20.90
2022-10-13T13:31:17.496Z,21.10
2022-10-13T13:33:45.597Z,21.70
2022-10-13T13:36:25.917Z,21.80
2022-10-13T13:38:54.463Z,22.20
2022-10-13T13:41:22.264Z,22.00
2022-10-13T13:43:49.861Z,21.40
2022-10-13T13:46:20.787Z,20.70
2022-10-13T13:48:48.822Z,19.70
2022-10-13T13:51:17.058Z,18.90
2022-10-13T13:53:44.780Z,18.40
2022-10-13T13:56:14.177Z,17.80
2022-10-13T13:58:41.960Z,17.40
2022-10-13T14:01:09.847Z,17.20
2022-10-13T14:03:37.636Z,17.10
2022-10-13T14:06:05.297Z,17.10
2022-10-13T14:08:42.064Z,17.10
2022-10-13T14:11:10.539Z,17.10
2022-10-13T14:13:38.099Z,17.00
2022-10-13T14:16:05.911Z,17.00
2022-10-13T14:18:33.368Z,17.00
2022-10-13T14:21:00.863Z,16.90
2022-10-13T14:23:28.332Z,16.90
2022-10-13T14:25:56.007Z,16.90
2022-10-13T14:28:23.475Z,17.00
2022-10-13T14:30:50.962Z,16.90
2022-10-13T14:33:19.705Z,16.90
2022-10-13T14:35:47.116Z,16.90
2022-10-13T14:38:14.740Z,16.80
2022-10-13T14:40:42.476Z,16.90
2022-10-13T14:43:09.908Z,16.90
2022-10-13T14:45:37.244Z,16.80
2022-10-13T14:48:05.069Z,16.80
2022-10-13T14:50:32.497Z,16.70
2022-10-13T14:52:59.943Z,16.80
2022-10-13T14:55:27.925Z,16.80
2022-10-13T14:57:55.335Z,16.70
2022-10-13T15:00:22.866Z,16.70
2022-10-13T15:02:50.313Z,16.60
2022-10-13T15:05:18.884Z,16.60
2022-10-13T15:07:46.356Z,16.60
2022-10-13T15:10:14.047Z,16.50
2022-10-13T15:12:41.574Z,16.50
2022-10-13T15:15:09.709Z,16.40
2022-10-13T15:17:37.294Z,16.40
2022-10-13T15:20:06.273Z,16.30
2022-10-13T15:22:33.799Z,16.40
2022-10-13T15:25:01.233Z,16.20
2022-10-13T15:27:28.737Z,16.20
2022-10-13T15:29:56.116Z,16.20
2022-10-13T15:32:23.859Z,16.20
2022-10-13T15:34:52.331Z,16.20
2022-10-13T15:37:19.767Z,16.20
2022-10-13T15:39:47.178Z,16.20
2022-10-13T15:42:14.569Z,16.20
2022-10-13T15:45:09.353Z,16.20
2022-10-13T15:47:38.177Z,16.20
2022-10-13T15:50:05.808Z,16.10
2022-10-13T15:52:37.902Z,16.10
2022-10-13T15:55:06.270Z,16.10
2022-10-13T15:57:33.972Z,16.00
2022-10-13T16:00:01.395Z,16.00
2022-10-13T16:02:28.952Z,16.10
2022-10-13T16:04:58.112Z,16.00
2022-10-13T16:07:25.489Z,16.00
2022-10-13T16:09:52.913Z,16.00
2022-10-13T16:12:20.563Z,16.00
2022-10-13T16:14:48.166Z,16.00
2022-10-13T16:17:15.674Z,16.00
2022-10-13T16:19:43.130Z,16.00
2022-10-13T16:22:10.606Z,16.00
2022-10-13T16:24:38.221Z,15.90
2022-10-13T16:27:05.604Z,15.90
2022-10-13T16:29:33.209Z,15.90
2022-10-13T16:32:00.625Z,15.90
2022-10-13T16:34:28.106Z,15.80
2022-10-13T16:36:55.503Z,15.80
2022-10-13T16:39:24.485Z,15.80
2022-10-13T16:41:52.104Z,15.80
2022-10-13T16:44:19.546Z,15.70
2022-10-13T16:46:49.458Z,15.70
2022-10-13T16:49:16.932Z,15.70
2022-10-13T16:51:44.261Z,15.70
2022-10-13T16:54:12.932Z,15.70
2022-10-13T16:56:40.263Z,15.70
2022-10-13T16:59:07.997Z,15.70
2022-10-13T17:01:36.475Z,15.60
2022-10-13T17:04:04.973Z,15.60
2022-10-13T17:06:32.630Z,15.60
2022-10-13T17:09:03.387Z,15.60
2022-10-13T17:11:32.814Z,15.60
2022-10-13T17:14:01.287Z,15.60
2022-10-13T17:16:29.994Z,15.60
2022-10-13T17:18:57.440Z,15.50
2022-10-13T17:21:24.883Z,15.50
2022-10-13T17:23:54.281Z,15.50
2022-10-13T17:26:22.462Z,15.50
2022-10-13T17:28:50.039Z,15.50
2022-10-13T17:31:22.609Z,15.50
2022-10-13T17:33:50.790Z,15.50
2022-10-13T17:36:21.270Z,15.50
2022-10-13T17:38:50.041Z,15.50
2022-10-13T17:41:18.820Z,15.50
2022-10-13T17:43:46.317Z,15.50
2022-10-13T17:46:35.739Z,15.50
2022-10-13T17:49:02.750Z,15.50
2022-10-13T17:51:30.205Z,15.50
2022-10-13T17:53:59.512Z,15.50
2022-10-13T17:56:28.361Z,15.50
2022-10-13T17:58:56.013Z,15.40
2022-10-13T18:01:24.551Z,15.40
2022-10-13T18:04:03.284Z,15.40
2022-10-13T18:06:38.483Z,15.60
2022-10-13T18:09:12.282Z,15.50
2022-10-13T18:11:43.269Z,15.50
2022-10-13T18:14:13.012Z,15.50
2022-10-13T18:16:42.432Z,15.40
2022-10-13T18:19:09.796Z,15.40
2022-10-13T18:21:37.178Z,15.40
2022-10-13T18:24:04.902Z,15.30
2022-10-13T18:26:35.704Z,15.40
2022-10-13T18:29:05.945Z,15.30
2022-10-13T18:31:36.160Z,15.30
2022-10-13T18:34:06.511Z,15.30
2022-10-13T18:36:36.062Z,15.30
2022-10-13T18:39:08.755Z,15.30
2022-10-13T18:41:36.973Z,15.30
2022-10-13T18:44:05.028Z,15.20
2022-10-13T18:46:33.527Z,15.30
2022-10-13T18:49:01.033Z,15.20
2022-10-13T18:51:35.635Z,15.20
2022-10-13T18:54:04.876Z,15.20
2022-10-13T18:56:34.258Z,15.20
2022-10-13T18:59:02.830Z,15.20
2022-10-13T19:01:32.889Z,15.20
2022-10-13T19:04:00.776Z,15.20
2022-10-13T19:06:31.890Z,15.20
2022-10-13T19:09:00.891Z,15.20
2022-10-13T19:11:30.288Z,15.10
2022-10-13T19:13:58.716Z,15.10
2022-10-13T19:16:28.185Z,15.10
2022-10-13T19:18:56.028Z,15.10
2022-10-13T19:21:24.744Z,15.20
2022-10-13T19:23:52.402Z,15.20
2022-10-13T19:26:32.328Z,15.20
2022-10-13T19:29:12.083Z,15.20
2022-10-13T19:31:41.794Z,15.30
2022-10-13T19:34:11.114Z,15.20
2022-10-13T19:36:44.016Z,15.20
2022-10-13T19:39:20.873Z,15.20
2022-10-13T19:41:49.208Z,15.10
2022-10-13T19:44:17.939Z,15.10
2022-10-13T19:46:47.434Z,15.10
2022-10-13T19:49:18.867Z,15.00
2022-10-13T19:51:47.120Z,15.00
2022-10-13T19:54:15.038Z,14.90
2022-10-13T19:56:42.421Z,14.90
2022-10-13T19:59:09.908Z,14.90
2022-10-13T20:01:41.155Z,14.90
2022-10-13T20:04:09.599Z,14.90
2022-10-13T20:06:37.550Z,14.90
2022-10-13T20:09:05.766Z,14.80
2022-10-13T20:11:33.405Z,14.80
2022-10-13T20:14:00.866Z,14.80
2022-10-13T20:16:29.111Z,14.70
2022-10-13T20:18:58.609Z,14.70
2022-10-13T20:21:27.794Z,14.50
2022-10-13T20:23:57.104Z,14.50
2022-10-13T20:26:25.463Z,14.40
2022-10-13T20:28:54.448Z,14.30
2022-10-13T20:31:23.056Z,14.30
2022-10-13T20:33:55.875Z,14.20
2022-10-13T20:36:25.721Z,14.20
2022-10-13T20:38:53.284Z,14.10
2022-10-13T20:41:29.337Z,14.10
2022-10-13T20:43:59.206Z,14.10
2022-10-13T20:46:27.175Z,14.10
2022-10-13T20:49:10.492Z,14.00
2022-10-13T20:51:40.086Z,14.00
2022-10-13T20:54:07.931Z,14.00
2022-10-13T20:56:35.843Z,14.00
2022-10-13T20:59:05.738Z,13.90
2022-10-13T21:01:33.706Z,14.00
2022-10-13T21:04:01.095Z,13.90
2022-10-13T21:06:28.523Z,13.90
2022-10-13T21:08:56.100Z,13.90
2022-10-13T21:11:24.825Z,13.80
2022-10-13T21:13:53.110Z,13.90
2022-10-13T21:16:29.086Z,13.80
2022-10-13T21:18:57.685Z,13.80
2022-10-13T21:21:27.974Z,13.80
2022-10-13T21:23:57.716Z,13.80
2022-10-13T21:26:27.655Z,13.80
2022-10-13T21:28:55.750Z,13.70
2022-10-13T21:31:24.317Z,13.80
2022-10-13T21:33:52.076Z,13.70
2022-10-13T21:36:30.874Z,13.70
2022-10-13T21:39:00.628Z,13.70
2022-10-13T21:41:28.765Z,13.70
2022-10-13T21:43:56.399Z,13.60
2022-10-13T21:46:26.707Z,13.60
2022-10-13T21:48:59.678Z,13.60
2022-10-13T21:51:35.749Z,13.80
2022-10-13T21:54:06.634Z,13.70
2022-10-13T21:56:34.252Z,13.70
2022-10-13T21:59:01.910Z,13.70
2022-10-13T22:01:29.580Z,13.60
2022-10-13T22:03:59.557Z,13.60
2022-10-13T22:06:28.699Z,13.60
2022-10-13T22:08:57.490Z,13.60
2022-10-13T22:11:27.456Z,13.50
2022-10-13T22:13:56.838Z,13.50
2022-10-13T22:16:27.050Z,13.40
2022-10-13T22:18:56.307Z,13.40
2022-10-13T22:21:29.800Z,13.40
2022-10-13T22:24:02.458Z,13.40
2022-10-13T22:26:32.998Z,13.30
2022-10-13T22:29:01.642Z,13.30
2022-10-13T22:31:30.644Z,13.30
2022-10-13T22:33:59.344Z,13.30
2022-10-13T22:36:27.500Z,13.30
2022-10-13T22:38:58.495Z,13.30
2022-10-13T22:41:25.978Z,13.30
2022-10-13T22:43:55.916Z,13.20
2022-10-13T22:46:25.882Z,13.20
2022-10-13T22:48:53.504Z,13.20
2022-10-13T22:51:22.771Z,13.20
2022-10-13T22:53:50.540Z,13.20
2022-10-13T22:56:20.831Z,13.20
2022-10-13T22:58:53.482Z,13.20
2022-10-13T23:01:21.684Z,13.20
2022-10-13T23:03:50.898Z,13.20
2022-10-13T23:06:20.985Z,13.20
2022-10-13T23:08:49.360Z,13.20
2022-10-13T23:11:17.066Z,13.20
2022-10-13T23:13:44.923Z,13.20
2022-10-13T23:16:15.660Z,13.20
2022-10-13T23:18:43.551Z,13.20
2022-10-13T23:21:15.483Z,13.20
2022-10-13T23:23:43.477Z,13.20
2022-10-13T23:26:16.311Z,13.20
2022-10-13T23:28:44.205Z,13.20
2022-10-13T23:31:17.471Z,13.20
2022-10-13T23:33:45.042Z,13.20
2022-10-13T23:36:17.921Z,13.10
2022-10-13T23:38:45.698Z,13.10
2022-10-13T23:41:15.425Z,13.10
2022-10-13T23:43:43.373Z,13.10
2022-10-13T23:46:11.358Z,13.10
2022-10-13T23:48:40.009Z,13.10
2022-10-13T23:51:10.035Z,13.10
2022-10-13T23:53:38.444Z,13.10
2022-10-13T23:56:07.401Z,13.10
2022-10-13T23:58:39.517Z,13.10
